sensor_id;sensor_type;location;lat;lon;timestamp;temperature;humidity
53286;DHT22;39171;45.550;12.074;2023-03-01T00:03:04;15.60;55.40
53286;DHT22;39171;45.550;12.074;2023-03-01T00:09:05;15.60;56.80
53286;DHT22;39171;45.550;12.074;2023-03-01T00:15:06;15.50;56.00
53286;DHT22;39171;45.550;12.074;2023-03-01T00:21:08;15.50;56.20
53286;DHT22;39171;45.550;12.074;2023-03-01T00:27:09;15.50;56.10
53286;DHT22;39171;45.550;12.074;2023-03-01T00:33:10;15.50;56.50
53286;DHT22;39171;45.550;12.074;2023-03-01T00:39:12;15.40;55.90
53286;DHT22;39171;45.550;12.074;2023-03-01T00:45:14;15.40;56.50
53286;DHT22;39171;45.550;12.074;2023-03-01T00:51:25;15.30;56.10
53286;DHT22;39171;45.550;12.074;2023-03-01T00:57:27;15.30;56.50
53286;DHT22;39171;45.550;12.074;2023-03-01T01:03:28;15.20;56.30
53286;DHT22;39171;45.550;12.074;2023-03-01T01:09:29;15.20;56.70
53286;DHT22;39171;45.550;12.074;2023-03-01T01:15:34;15.20;56.50
53286;DHT22;39171;45.550;12.074;2023-03-01T01:21:36;15.20;56.50
53286;DHT22;39171;45.550;12.074;2023-03-01T01:27:37;15.10;56.90
53286;DHT22;39171;45.550;12.074;2023-03-01T01:33:38;15.10;56.70
53286;DHT22;39171;45.550;12.074;2023-03-01T01:39:39;15.10;56.60
53286;DHT22;39171;45.550;12.074;2023-03-01T01:45:41;15.10;57.20
53286;DHT22;39171;45.550;12.074;2023-03-01T01:51:43;15.00;56.90
53286;DHT22;39171;45.550;12.074;2023-03-01T01:57:46;15.00;57.20
53286;DHT22;39171;45.550;12.074;2023-03-01T02:03:48;15.00;57.10
53286;DHT22;39171;45.550;12.074;2023-03-01T02:09:50;15.00;57.00
53286;DHT22;39171;45.550;12.074;2023-03-01T02:15:53;15.00;57.00
53286;DHT22;39171;45.550;12.074;2023-03-01T02:22:07;14.90;57.00
53286;DHT22;39171;45.550;12.074;2023-03-01T02:34:17;14.90;57.20
53286;DHT22;39171;45.550;12.074;2023-03-01T02:40:19;14.80;56.90
53286;DHT22;39171;45.550;12.074;2023-03-01T02:46:25;14.80;57.50
53286;DHT22;39171;45.550;12.074;2023-03-01T02:58:27;14.80;57.00
53286;DHT22;39171;45.550;12.074;2023-03-01T03:04:30;14.70;57.80
53286;DHT22;39171;45.550;12.074;2023-03-01T03:10:34;14.70;57.50
53286;DHT22;39171;45.550;12.074;2023-03-01T03:16:37;14.70;57.40
53286;DHT22;39171;45.550;12.074;2023-03-01T03:22:38;14.70;57.50
53286;DHT22;39171;45.550;12.074;2023-03-01T03:28:40;14.70;57.70
53286;DHT22;39171;45.550;12.074;2023-03-01T03:34:42;14.70;57.70
53286;DHT22;39171;45.550;12.074;2023-03-01T03:40:44;14.70;57.70
53286;DHT22;39171;45.550;12.074;2023-03-01T03:46:45;14.70;57.70
53286;DHT22;39171;45.550;12.074;2023-03-01T03:52:47;14.60;57.80
53286;DHT22;39171;45.550;12.074;2023-03-01T03:58:54;14.60;58.00
53286;DHT22;39171;45.550;12.074;2023-03-01T04:04:55;14.50;58.20
53286;DHT22;39171;45.550;12.074;2023-03-01T04:10:57;14.50;58.00
53286;DHT22;39171;45.550;12.074;2023-03-01T04:16:59;14.50;58.20
53286;DHT22;39171;45.550;12.074;2023-03-01T04:29:11;14.50;58.20
53286;DHT22;39171;45.550;12.074;2023-03-01T04:35:12;14.40;58.50
53286;DHT22;39171;45.550;12.074;2023-03-01T04:41:14;14.40;58.30
53286;DHT22;39171;45.550;12.074;2023-03-01T04:47:15;14.40;58.90
53286;DHT22;39171;45.550;12.074;2023-03-01T04:53:16;14.40;58.60
53286;DHT22;39171;45.550;12.074;2023-03-01T04:59:19;14.40;58.80
53286;DHT22;39171;45.550;12.074;2023-03-01T05:05:25;14.30;58.50
53286;DHT22;39171;45.550;12.074;2023-03-01T05:11:26;14.30;58.60
53286;DHT22;39171;45.550;12.074;2023-03-01T05:17:31;14.30;59.00
53286;DHT22;39171;45.550;12.074;2023-03-01T05:23:32;14.30;58.70
53286;DHT22;39171;45.550;12.074;2023-03-01T05:29:34;14.30;58.90
53286;DHT22;39171;45.550;12.074;2023-03-01T05:35:35;14.30;59.00
53286;DHT22;39171;45.550;12.074;2023-03-01T05:41:37;14.30;58.80
53286;DHT22;39171;45.550;12.074;2023-03-01T05:47:39;14.30;58.90
53286;DHT22;39171;45.550;12.074;2023-03-01T05:53:44;14.30;59.10
53286;DHT22;39171;45.550;12.074;2023-03-01T05:59:45;14.30;59.10
53286;DHT22;39171;45.550;12.074;2023-03-01T06:05:46;14.20;59.10
53286;DHT22;39171;45.550;12.074;2023-03-01T06:11:47;14.20;59.50
53286;DHT22;39171;45.550;12.074;2023-03-01T06:17:49;14.20;59.50
53286;DHT22;39171;45.550;12.074;2023-03-01T06:23:50;14.20;60.00
53286;DHT22;39171;45.550;12.074;2023-03-01T06:29:52;14.30;60.10
53286;DHT22;39171;45.550;12.074;2023-03-01T06:35:54;14.40;59.60
53286;DHT22;39171;45.550;12.074;2023-03-01T06:41:55;14.70;58.60
53286;DHT22;39171;45.550;12.074;2023-03-01T06:48:04;15.00;58.20
53286;DHT22;39171;45.550;12.074;2023-03-01T06:54:05;15.20;57.50
53286;DHT22;39171;45.550;12.074;2023-03-01T07:00:06;15.50;57.10
53286;DHT22;39171;45.550;12.074;2023-03-01T07:06:09;15.60;56.50
53286;DHT22;39171;45.550;12.074;2023-03-01T07:12:10;15.80;55.90
53286;DHT22;39171;45.550;12.074;2023-03-01T07:18:11;15.90;55.30
53286;DHT22;39171;45.550;12.074;2023-03-01T07:24:12;16.10;55.10
53286;DHT22;39171;45.550;12.074;2023-03-01T07:30:13;16.20;54.70
53286;DHT22;39171;45.550;12.074;2023-03-01T07:36:15;16.30;54.40
53286;DHT22;39171;45.550;12.074;2023-03-01T07:42:16;16.40;54.40
53286;DHT22;39171;45.550;12.074;2023-03-01T07:48:17;16.50;53.90
53286;DHT22;39171;45.550;12.074;2023-03-01T07:54:18;16.60;53.60
53286;DHT22;39171;45.550;12.074;2023-03-01T08:00:19;16.70;53.50
53286;DHT22;39171;45.550;12.074;2023-03-01T08:06:21;16.80;52.90
53286;DHT22;39171;45.550;12.074;2023-03-01T08:12:22;16.80;52.60
53286;DHT22;39171;45.550;12.074;2023-03-01T08:18:24;16.90;52.70
53286;DHT22;39171;45.550;12.074;2023-03-01T08:24:26;17.00;52.20
53286;DHT22;39171;45.550;12.074;2023-03-01T08:30:27;17.20;51.80
53286;DHT22;39171;45.550;12.074;2023-03-01T08:36:29;17.20;51.60
53286;DHT22;39171;45.550;12.074;2023-03-01T08:42:30;17.30;51.50
53286;DHT22;39171;45.550;12.074;2023-03-01T08:48:33;17.30;51.10
53286;DHT22;39171;45.550;12.074;2023-03-01T08:54:34;17.50;51.40
53286;DHT22;39171;45.550;12.074;2023-03-01T09:00:35;17.50;50.90
53286;DHT22;39171;45.550;12.074;2023-03-01T09:06:39;17.70;50.60
53286;DHT22;39171;45.550;12.074;2023-03-01T09:12:40;17.70;50.70
53286;DHT22;39171;45.550;12.074;2023-03-01T09:18:41;17.70;49.90
53286;DHT22;39171;45.550;12.074;2023-03-01T09:24:42;17.80;50.00
53286;DHT22;39171;45.550;12.074;2023-03-01T09:30:44;17.90;49.50
53286;DHT22;39171;45.550;12.074;2023-03-01T09:36:45;17.90;49.40
53286;DHT22;39171;45.550;12.074;2023-03-01T09:42:48;18.00;49.90
53286;DHT22;39171;45.550;12.074;2023-03-01T09:48:56;18.10;49.80
53286;DHT22;39171;45.550;12.074;2023-03-01T09:54:58;18.10;49.80
53286;DHT22;39171;45.550;12.074;2023-03-01T10:00:59;18.20;49.20
53286;DHT22;39171;45.550;12.074;2023-03-01T10:13:15;18.30;48.30
53286;DHT22;39171;45.550;12.074;2023-03-01T10:19:22;18.30;48.80
53286;DHT22;39171;45.550;12.074;2023-03-01T10:31:36;18.40;48.00
53286;DHT22;39171;45.550;12.074;2023-03-01T10:37:45;18.50;48.20
53286;DHT22;39171;45.550;12.074;2023-03-01T10:43:50;18.50;48.20
53286;DHT22;39171;45.550;12.074;2023-03-01T10:50:03;18.50;48.40
53286;DHT22;39171;45.550;12.074;2023-03-01T11:08:10;18.60;47.70
53286;DHT22;39171;45.550;12.074;2023-03-01T11:26:15;18.60;47.70
53286;DHT22;39171;45.550;12.074;2023-03-01T11:32:22;18.60;48.00
53286;DHT22;39171;45.550;12.074;2023-03-01T11:38:26;18.60;48.40
53286;DHT22;39171;45.550;12.074;2023-03-01T11:44:28;18.70;47.90
53286;DHT22;39171;45.550;12.074;2023-03-01T11:50:35;18.70;47.50
53286;DHT22;39171;45.550;12.074;2023-03-01T11:56:43;18.70;47.60
53286;DHT22;39171;45.550;12.074;2023-03-01T12:34:03;18.40;48.00
53286;DHT22;39171;45.550;12.074;2023-03-01T13:22:37;18.80;47.60
53286;DHT22;39171;45.550;12.074;2023-03-01T13:34:42;19.00;47.60
53286;DHT22;39171;45.550;12.074;2023-03-01T13:46:45;19.10;48.00
53286;DHT22;39171;45.550;12.074;2023-03-01T13:52:56;19.10;47.80
53286;DHT22;39171;45.550;12.074;2023-03-01T13:59:12;19.20;47.30
53286;DHT22;39171;45.550;12.074;2023-03-01T14:05:14;19.20;47.80
53286;DHT22;39171;45.550;12.074;2023-03-01T14:23:21;19.20;47.30
53286;DHT22;39171;45.550;12.074;2023-03-01T14:29:23;19.30;47.00
53286;DHT22;39171;45.550;12.074;2023-03-01T14:35:35;19.30;47.30
53286;DHT22;39171;45.550;12.074;2023-03-01T14:41:36;19.40;47.20
53286;DHT22;39171;45.550;12.074;2023-03-01T14:47:37;19.40;47.10
53286;DHT22;39171;45.550;12.074;2023-03-01T14:53:40;19.40;47.00
53286;DHT22;39171;45.550;12.074;2023-03-01T14:59:43;19.40;47.10
53286;DHT22;39171;45.550;12.074;2023-03-01T15:05:44;19.50;46.70
53286;DHT22;39171;45.550;12.074;2023-03-01T15:11:45;19.50;46.80
53286;DHT22;39171;45.550;12.074;2023-03-01T15:17:51;19.50;47.00
53286;DHT22;39171;45.550;12.074;2023-03-01T15:23:54;19.50;46.90
53286;DHT22;39171;45.550;12.074;2023-03-01T15:29:59;19.60;46.80
53286;DHT22;39171;45.550;12.074;2023-03-01T15:36:02;19.60;46.60
53286;DHT22;39171;45.550;12.074;2023-03-01T15:42:08;19.60;46.40
53286;DHT22;39171;45.550;12.074;2023-03-01T15:48:18;19.60;46.60
53286;DHT22;39171;45.550;12.074;2023-03-01T15:54:20;19.60;47.20
53286;DHT22;39171;45.550;12.074;2023-03-01T16:00:22;19.60;46.80
53286;DHT22;39171;45.550;12.074;2023-03-01T16:06:23;19.60;47.20
53286;DHT22;39171;45.550;12.074;2023-03-01T16:12:24;19.60;47.20
53286;DHT22;39171;45.550;12.074;2023-03-01T16:18:26;19.60;47.40
53286;DHT22;39171;45.550;12.074;2023-03-01T16:24:27;19.60;47.60
53286;DHT22;39171;45.550;12.074;2023-03-01T16:30:28;19.60;48.20
53286;DHT22;39171;45.550;12.074;2023-03-01T16:36:29;19.50;48.50
53286;DHT22;39171;45.550;12.074;2023-03-01T16:42:34;19.40;48.60
53286;DHT22;39171;45.550;12.074;2023-03-01T16:48:40;19.30;48.90
53286;DHT22;39171;45.550;12.074;2023-03-01T16:54:42;19.20;49.10
53286;DHT22;39171;45.550;12.074;2023-03-01T17:00:43;19.10;49.40
53286;DHT22;39171;45.550;12.074;2023-03-01T17:06:44;19.10;49.50
53286;DHT22;39171;45.550;12.074;2023-03-01T17:12:48;19.10;49.50
53286;DHT22;39171;45.550;12.074;2023-03-01T17:18:49;19.10;49.50
53286;DHT22;39171;45.550;12.074;2023-03-01T17:24:50;19.10;49.60
53286;DHT22;39171;45.550;12.074;2023-03-01T17:30:51;19.20;49.60
53286;DHT22;39171;45.550;12.074;2023-03-01T17:36:53;19.20;49.30
53286;DHT22;39171;45.550;12.074;2023-03-01T17:42:54;19.20;49.40
53286;DHT22;39171;45.550;12.074;2023-03-01T17:48:56;19.30;49.40
53286;DHT22;39171;45.550;12.074;2023-03-01T17:54:58;19.30;49.50
53286;DHT22;39171;45.550;12.074;2023-03-01T18:01:32;19.20;49.60
53286;DHT22;39171;45.550;12.074;2023-03-01T18:07:26;19.20;49.80
53286;DHT22;39171;45.550;12.074;2023-03-01T18:13:30;19.10;49.90
53286;DHT22;39171;45.550;12.074;2023-03-01T18:19:31;19.00;50.00
53286;DHT22;39171;45.550;12.074;2023-03-01T18:25:33;19.00;50.30
53286;DHT22;39171;45.550;12.074;2023-03-01T18:31:34;18.90;50.40
53286;DHT22;39171;45.550;12.074;2023-03-01T18:37:35;18.80;50.60
53286;DHT22;39171;45.550;12.074;2023-03-01T18:43:36;18.80;50.60
53286;DHT22;39171;45.550;12.074;2023-03-01T18:49:37;18.70;50.90
53286;DHT22;39171;45.550;12.074;2023-03-01T18:55:39;18.70;51.00
53286;DHT22;39171;45.550;12.074;2023-03-01T19:01:40;18.70;51.10
53286;DHT22;39171;45.550;12.074;2023-03-01T19:07:41;18.60;51.30
53286;DHT22;39171;45.550;12.074;2023-03-01T19:13:42;18.60;51.40
53286;DHT22;39171;45.550;12.074;2023-03-01T19:19:44;18.50;51.60
53286;DHT22;39171;45.550;12.074;2023-03-01T19:25:45;18.50;51.70
53286;DHT22;39171;45.550;12.074;2023-03-01T19:31:46;18.40;51.80
53286;DHT22;39171;45.550;12.074;2023-03-01T19:37:47;18.40;51.90
53286;DHT22;39171;45.550;12.074;2023-03-01T19:43:48;18.30;51.90
53286;DHT22;39171;45.550;12.074;2023-03-01T19:49:50;18.30;51.80
53286;DHT22;39171;45.550;12.074;2023-03-01T19:56:00;18.20;52.30
53286;DHT22;39171;45.550;12.074;2023-03-01T20:02:02;18.20;52.10
53286;DHT22;39171;45.550;12.074;2023-03-01T20:08:04;18.20;52.50
53286;DHT22;39171;45.550;12.074;2023-03-01T20:14:05;18.10;52.60
53286;DHT22;39171;45.550;12.074;2023-03-01T20:20:09;18.10;52.80
53286;DHT22;39171;45.550;12.074;2023-03-01T20:26:10;18.00;52.90
53286;DHT22;39171;45.550;12.074;2023-03-01T20:32:18;18.00;53.10
53286;DHT22;39171;45.550;12.074;2023-03-01T20:38:20;17.90;53.00
53286;DHT22;39171;45.550;12.074;2023-03-01T20:44:21;17.90;52.80
53286;DHT22;39171;45.550;12.074;2023-03-01T20:50:22;17.80;53.40
53286;DHT22;39171;45.550;12.074;2023-03-01T20:56:23;17.80;53.60
53286;DHT22;39171;45.550;12.074;2023-03-01T21:02:35;17.80;53.50
53286;DHT22;39171;45.550;12.074;2023-03-01T21:08:38;17.80;53.50
53286;DHT22;39171;45.550;12.074;2023-03-01T21:14:39;17.80;53.80
53286;DHT22;39171;45.550;12.074;2023-03-01T21:20:44;17.70;54.00
53286;DHT22;39171;45.550;12.074;2023-03-01T21:26:45;17.70;54.10
53286;DHT22;39171;45.550;12.074;2023-03-01T21:32:46;17.70;54.10
53286;DHT22;39171;45.550;12.074;2023-03-01T21:38:47;17.70;54.30
53286;DHT22;39171;45.550;12.074;2023-03-01T21:44:49;17.60;54.30
53286;DHT22;39171;45.550;12.074;2023-03-01T21:51:00;17.60;54.60
53286;DHT22;39171;45.550;12.074;2023-03-01T21:57:01;17.50;54.60
53286;DHT22;39171;45.550;12.074;2023-03-01T22:03:02;17.50;54.50
53286;DHT22;39171;45.550;12.074;2023-03-01T22:09:04;17.50;54.50
53286;DHT22;39171;45.550;12.074;2023-03-01T22:15:07;17.50;54.60
53286;DHT22;39171;45.550;12.074;2023-03-01T22:21:09;17.40;54.80
53286;DHT22;39171;45.550;12.074;2023-03-01T22:27:12;17.40;54.80
53286;DHT22;39171;45.550;12.074;2023-03-01T22:33:13;17.40;54.90
53286;DHT22;39171;45.550;12.074;2023-03-01T22:39:15;17.30;55.10
53286;DHT22;39171;45.550;12.074;2023-03-01T22:45:17;17.30;55.20
53286;DHT22;39171;45.550;12.074;2023-03-01T22:51:19;17.30;55.30
53286;DHT22;39171;45.550;12.074;2023-03-01T22:57:21;17.30;55.40
53286;DHT22;39171;45.550;12.074;2023-03-01T23:03:22;17.20;55.50
53286;DHT22;39171;45.550;12.074;2023-03-01T23:09:27;17.20;55.50
53286;DHT22;39171;45.550;12.074;2023-03-01T23:15:30;17.20;55.50
53286;DHT22;39171;45.550;12.074;2023-03-01T23:21:31;17.20;55.50
53286;DHT22;39171;45.550;12.074;2023-03-01T23:27:35;17.20;55.60
53286;DHT22;39171;45.550;12.074;2023-03-01T23:33:36;17.10;55.70
53286;DHT22;39171;45.550;12.074;2023-03-01T23:39:38;17.10;55.80
53286;DHT22;39171;45.550;12.074;2023-03-01T23:45:40;17.00;55.90
53286;DHT22;39171;45.550;12.074;2023-03-01T23:51:43;17.00;55.90
53286;DHT22;39171;45.550;12.074;2023-03-01T23:57:44;17.00;55.90
